sensor_id;sensor_type;location;lat;lon;timestamp;temperature;humidity
36444;DHT22;24692;45.642;13.806;2023-02-20T00:00:09;10.60;99.90
36444;DHT22;24692;45.642;13.806;2023-02-20T00:02:35;10.70;99.90
36444;DHT22;24692;45.642;13.806;2023-02-20T00:05:00;10.70;99.90
36444;DHT22;24692;45.642;13.806;2023-02-20T00:07:26;10.70;99.90
36444;DHT22;24692;45.642;13.806;2023-02-20T00:09:52;10.80;99.90
36444;DHT22;24692;45.642;13.806;2023-02-20T00:12:17;10.80;99.90
36444;DHT22;24692;45.642;13.806;2023-02-20T00:14:43;10.80;99.90
36444;DHT22;24692;45.642;13.806;2023-02-20T00:17:09;10.70;99.90
36444;DHT22;24692;45.642;13.806;2023-02-20T00:19:35;10.80;99.90
36444;DHT22;24692;45.642;13.806;2023-02-20T00:22:00;10.80;99.90
36444;DHT22;24692;45.642;13.806;2023-02-20T00:24:26;10.70;99.90
36444;DHT22;24692;45.642;13.806;2023-02-20T00:26:52;10.70;99.90
36444;DHT22;24692;45.642;13.806;2023-02-20T00:29:20;10.70;99.90
36444;DHT22;24692;45.642;13.806;2023-02-20T00:31:54;10.70;99.90
36444;DHT22;24692;45.642;13.806;2023-02-20T00:34:26;10.70;99.90
36444;DHT22;24692;45.642;13.806;2023-02-20T00:36:51;10.70;99.90
36444;DHT22;24692;45.642;13.806;2023-02-20T00:39:17;10.70;99.90
36444;DHT22;24692;45.642;13.806;2023-02-20T00:41:43;10.70;99.90
36444;DHT22;24692;45.642;13.806;2023-02-20T00:44:09;10.60;99.90
36444;DHT22;24692;45.642;13.806;2023-02-20T00:46:35;10.70;99.90
36444;DHT22;24692;45.642;13.806;2023-02-20T00:49:01;10.70;99.90
36444;DHT22;24692;45.642;13.806;2023-02-20T00:51:27;10.70;99.90
36444;DHT22;24692;45.642;13.806;2023-02-20T00:53:53;10.70;99.90
36444;DHT22;24692;45.642;13.806;2023-02-20T00:56:18;10.70;99.90
36444;DHT22;24692;45.642;13.806;2023-02-20T00:58:44;10.70;99.90
36444;DHT22;24692;45.642;13.806;2023-02-20T01:01:10;10.70;99.90
36444;DHT22;24692;45.642;13.806;2023-02-20T01:03:35;10.70;99.90
36444;DHT22;24692;45.642;13.806;2023-02-20T01:06:01;10.60;99.90
36444;DHT22;24692;45.642;13.806;2023-02-20T01:08:27;10.60;99.90
36444;DHT22;24692;45.642;13.806;2023-02-20T01:10:52;10.60;99.90
36444;DHT22;24692;45.642;13.806;2023-02-20T01:13:18;10.70;99.90
36444;DHT22;24692;45.642;13.806;2023-02-20T01:15:44;10.60;99.90
36444;DHT22;24692;45.642;13.806;2023-02-20T01:18:10;10.70;99.90
36444;DHT22;24692;45.642;13.806;2023-02-20T01:20:36;10.70;99.90
36444;DHT22;24692;45.642;13.806;2023-02-20T01:23:02;10.70;99.90
36444;DHT22;24692;45.642;13.806;2023-02-20T01:25:29;10.70;99.90
36444;DHT22;24692;45.642;13.806;2023-02-20T01:27:54;10.70;99.90
36444;DHT22;24692;45.642;13.806;2023-02-20T01:30:20;10.70;99.90
36444;DHT22;24692;45.642;13.806;2023-02-20T01:32:46;10.70;99.90
36444;DHT22;24692;45.642;13.806;2023-02-20T01:35:11;10.70;99.90
36444;DHT22;24692;45.642;13.806;2023-02-20T01:37:37;10.80;99.90
36444;DHT22;24692;45.642;13.806;2023-02-20T01:40:04;10.80;99.90
36444;DHT22;24692;45.642;13.806;2023-02-20T01:42:31;10.80;99.90
36444;DHT22;24692;45.642;13.806;2023-02-20T01:47:43;10.70;99.90
36444;DHT22;24692;45.642;13.806;2023-02-20T01:50:09;10.70;99.90
36444;DHT22;24692;45.642;13.806;2023-02-20T01:52:36;10.70;99.90
36444;DHT22;24692;45.642;13.806;2023-02-20T01:55:12;10.80;99.90
36444;DHT22;24692;45.642;13.806;2023-02-20T01:57:41;10.80;99.90
36444;DHT22;24692;45.642;13.806;2023-02-20T02:00:13;10.80;99.90
36444;DHT22;24692;45.642;13.806;2023-02-20T02:02:43;10.90;99.90
36444;DHT22;24692;45.642;13.806;2023-02-20T02:05:11;10.80;99.90
36444;DHT22;24692;45.642;13.806;2023-02-20T02:07:37;10.80;99.90
36444;DHT22;24692;45.642;13.806;2023-02-20T02:10:10;10.80;99.90
36444;DHT22;24692;45.642;13.806;2023-02-20T02:12:38;10.70;99.90
36444;DHT22;24692;45.642;13.806;2023-02-20T02:15:13;10.60;99.90
36444;DHT22;24692;45.642;13.806;2023-02-20T02:20:43;10.70;99.90
36444;DHT22;24692;45.642;13.806;2023-02-20T02:42:57;10.70;99.90
36444;DHT22;24692;45.642;13.806;2023-02-20T02:50:45;10.80;99.90
36444;DHT22;24692;45.642;13.806;2023-02-20T02:53:13;10.80;99.90
36444;DHT22;24692;45.642;13.806;2023-02-20T02:55:39;10.80;99.90
36444;DHT22;24692;45.642;13.806;2023-02-20T02:58:06;10.70;99.90
36444;DHT22;24692;45.642;13.806;2023-02-20T03:03:55;10.70;99.90
36444;DHT22;24692;45.642;13.806;2023-02-20T03:06:20;10.60;99.90
36444;DHT22;24692;45.642;13.806;2023-02-20T03:08:55;10.60;99.90
36444;DHT22;24692;45.642;13.806;2023-02-20T03:11:25;10.50;99.90
36444;DHT22;24692;45.642;13.806;2023-02-20T03:14:03;10.50;99.90
36444;DHT22;24692;45.642;13.806;2023-02-20T03:19:32;10.50;99.90
36444;DHT22;24692;45.642;13.806;2023-02-20T03:22:01;10.50;99.90
36444;DHT22;24692;45.642;13.806;2023-02-20T03:24:29;10.40;99.90
36444;DHT22;24692;45.642;13.806;2023-02-20T03:26:57;10.30;99.90
36444;DHT22;24692;45.642;13.806;2023-02-20T03:29:32;10.20;99.90
36444;DHT22;24692;45.642;13.806;2023-02-20T03:32:04;10.20;99.90
36444;DHT22;24692;45.642;13.806;2023-02-20T03:34:51;10.20;99.90
36444;DHT22;24692;45.642;13.806;2023-02-20T03:37:37;10.30;99.90
36444;DHT22;24692;45.642;13.806;2023-02-20T03:40:23;10.30;99.90
36444;DHT22;24692;45.642;13.806;2023-02-20T03:43:14;10.30;99.90
36444;DHT22;24692;45.642;13.806;2023-02-20T03:46:12;10.20;99.90
36444;DHT22;24692;45.642;13.806;2023-02-20T03:48:48;10.20;99.90
36444;DHT22;24692;45.642;13.806;2023-02-20T03:51:16;10.20;99.90
36444;DHT22;24692;45.642;13.806;2023-02-20T03:53:43;10.20;99.90
36444;DHT22;24692;45.642;13.806;2023-02-20T03:56:23;10.20;99.90
36444;DHT22;24692;45.642;13.806;2023-02-20T03:58:56;10.10;99.90
36444;DHT22;24692;45.642;13.806;2023-02-20T04:01:26;10.10;99.90
36444;DHT22;24692;45.642;13.806;2023-02-20T04:03:53;10.10;99.90
36444;DHT22;24692;45.642;13.806;2023-02-20T04:06:24;10.10;99.90
36444;DHT22;24692;45.642;13.806;2023-02-20T04:09:01;10.20;99.90
36444;DHT22;24692;45.642;13.806;2023-02-20T04:11:32;10.20;99.90
36444;DHT22;24692;45.642;13.806;2023-02-20T04:13:59;10.20;99.90
36444;DHT22;24692;45.642;13.806;2023-02-20T04:16:26;10.20;99.90
36444;DHT22;24692;45.642;13.806;2023-02-20T04:18:52;10.30;99.90
36444;DHT22;24692;45.642;13.806;2023-02-20T04:21:27;10.30;99.90
36444;DHT22;24692;45.642;13.806;2023-02-20T04:24:10;10.20;99.90
36444;DHT22;24692;45.642;13.806;2023-02-20T04:26:37;10.20;99.90
36444;DHT22;24692;45.642;13.806;2023-02-20T04:29:03;10.20;99.90
36444;DHT22;24692;45.642;13.806;2023-02-20T04:31:29;10.20;99.90
36444;DHT22;24692;45.642;13.806;2023-02-20T04:33:54;10.10;99.90
36444;DHT22;24692;45.642;13.806;2023-02-20T04:36:20;10.00;99.90
36444;DHT22;24692;45.642;13.806;2023-02-20T04:38:46;10.00;99.90
36444;DHT22;24692;45.642;13.806;2023-02-20T04:41:12;10.00;99.90
36444;DHT22;24692;45.642;13.806;2023-02-20T04:43:38;10.00;99.90
36444;DHT22;24692;45.642;13.806;2023-02-20T04:46:04;9.80;99.90
36444;DHT22;24692;45.642;13.806;2023-02-20T04:48:29;9.70;99.90
36444;DHT22;24692;45.642;13.806;2023-02-20T04:50:55;9.70;99.90
36444;DHT22;24692;45.642;13.806;2023-02-20T04:53:21;9.70;99.90
36444;DHT22;24692;45.642;13.806;2023-02-20T04:55:46;9.80;99.90
36444;DHT22;24692;45.642;13.806;2023-02-20T04:58:12;9.80;99.90
36444;DHT22;24692;45.642;13.806;2023-02-20T05:00:38;9.80;99.90
36444;DHT22;24692;45.642;13.806;2023-02-20T05:03:03;9.80;99.90
36444;DHT22;24692;45.642;13.806;2023-02-20T05:05:29;9.70;99.90
36444;DHT22;24692;45.642;13.806;2023-02-20T05:08:03;9.70;99.90
36444;DHT22;24692;45.642;13.806;2023-02-20T05:10:31;9.80;99.90
36444;DHT22;24692;45.642;13.806;2023-02-20T05:12:58;9.80;99.90
36444;DHT22;24692;45.642;13.806;2023-02-20T05:15:25;9.70;99.90
36444;DHT22;24692;45.642;13.806;2023-02-20T05:17:51;9.70;99.90
36444;DHT22;24692;45.642;13.806;2023-02-20T05:20:17;9.80;99.90
36444;DHT22;24692;45.642;13.806;2023-02-20T05:22:47;9.80;99.90
36444;DHT22;24692;45.642;13.806;2023-02-20T05:25:14;9.80;99.90
36444;DHT22;24692;45.642;13.806;2023-02-20T05:27:40;9.80;99.90
36444;DHT22;24692;45.642;13.806;2023-02-20T05:30:08;9.80;99.90
36444;DHT22;24692;45.642;13.806;2023-02-20T05:32:34;9.80;99.90
36444;DHT22;24692;45.642;13.806;2023-02-20T05:34:59;9.90;99.90
36444;DHT22;24692;45.642;13.806;2023-02-20T05:37:26;9.90;99.90
36444;DHT22;24692;45.642;13.806;2023-02-20T05:39:52;10.00;99.90
36444;DHT22;24692;45.642;13.806;2023-02-20T05:42:18;10.00;99.90
36444;DHT22;24692;45.642;13.806;2023-02-20T05:44:45;10.00;99.90
36444;DHT22;24692;45.642;13.806;2023-02-20T05:47:11;10.00;99.90
36444;DHT22;24692;45.642;13.806;2023-02-20T05:49:37;10.10;99.90
36444;DHT22;24692;45.642;13.806;2023-02-20T05:52:04;10.10;99.90
36444;DHT22;24692;45.642;13.806;2023-02-20T05:54:36;10.10;99.90
36444;DHT22;24692;45.642;13.806;2023-02-20T05:57:02;10.20;99.90
36444;DHT22;24692;45.642;13.806;2023-02-20T05:59:28;10.20;99.90
36444;DHT22;24692;45.642;13.806;2023-02-20T06:01:58;10.20;99.90
36444;DHT22;24692;45.642;13.806;2023-02-20T06:04:24;10.20;99.90
36444;DHT22;24692;45.642;13.806;2023-02-20T06:06:49;10.30;99.90
36444;DHT22;24692;45.642;13.806;2023-02-20T06:09:16;10.30;99.90
36444;DHT22;24692;45.642;13.806;2023-02-20T06:11:51;10.10;99.90
36444;DHT22;24692;45.642;13.806;2023-02-20T06:14:18;10.20;99.90
36444;DHT22;24692;45.642;13.806;2023-02-20T06:16:44;10.10;99.90
36444;DHT22;24692;45.642;13.806;2023-02-20T06:19:10;10.10;99.90
36444;DHT22;24692;45.642;13.806;2023-02-20T06:21:36;10.10;99.90
36444;DHT22;24692;45.642;13.806;2023-02-20T06:24:05;10.00;99.90
36444;DHT22;24692;45.642;13.806;2023-02-20T06:26:31;10.10;99.90
36444;DHT22;24692;45.642;13.806;2023-02-20T06:28:56;10.10;99.90
36444;DHT22;24692;45.642;13.806;2023-02-20T06:31:26;10.10;99.90
36444;DHT22;24692;45.642;13.806;2023-02-20T06:33:53;10.10;99.90
36444;DHT22;24692;45.642;13.806;2023-02-20T06:36:22;10.00;99.90
36444;DHT22;24692;45.642;13.806;2023-02-20T06:38:49;10.20;99.90
36444;DHT22;24692;45.642;13.806;2023-02-20T06:41:15;10.20;99.90
36444;DHT22;24692;45.642;13.806;2023-02-20T06:43:40;10.30;99.90
36444;DHT22;24692;45.642;13.806;2023-02-20T06:46:06;10.40;99.90
36444;DHT22;24692;45.642;13.806;2023-02-20T06:48:32;10.60;99.90
36444;DHT22;24692;45.642;13.806;2023-02-20T06:50:57;10.60;99.90
36444;DHT22;24692;45.642;13.806;2023-02-20T06:53:23;10.70;99.90
36444;DHT22;24692;45.642;13.806;2023-02-20T06:55:48;10.80;99.90
36444;DHT22;24692;45.642;13.806;2023-02-20T06:58:14;10.90;99.90
36444;DHT22;24692;45.642;13.806;2023-02-20T07:00:40;11.00;99.90
36444;DHT22;24692;45.642;13.806;2023-02-20T07:03:05;11.00;99.90
36444;DHT22;24692;45.642;13.806;2023-02-20T07:05:31;11.10;99.90
36444;DHT22;24692;45.642;13.806;2023-02-20T07:07:56;11.10;99.90
36444;DHT22;24692;45.642;13.806;2023-02-20T07:10:22;11.20;99.90
36444;DHT22;24692;45.642;13.806;2023-02-20T07:12:48;11.20;99.90
36444;DHT22;24692;45.642;13.806;2023-02-20T07:15:13;11.20;99.90
36444;DHT22;24692;45.642;13.806;2023-02-20T07:17:39;11.30;99.90
36444;DHT22;24692;45.642;13.806;2023-02-20T07:20:05;11.30;99.90
36444;DHT22;24692;45.642;13.806;2023-02-20T07:22:31;11.30;99.90
36444;DHT22;24692;45.642;13.806;2023-02-20T07:24:58;11.30;99.90
36444;DHT22;24692;45.642;13.806;2023-02-20T07:27:23;11.40;99.90
36444;DHT22;24692;45.642;13.806;2023-02-20T07:29:50;11.40;99.90
36444;DHT22;24692;45.642;13.806;2023-02-20T07:32:17;11.40;99.90
36444;DHT22;24692;45.642;13.806;2023-02-20T07:34:46;11.50;99.90
36444;DHT22;24692;45.642;13.806;2023-02-20T07:37:13;11.50;99.90
36444;DHT22;24692;45.642;13.806;2023-02-20T07:39:38;11.60;99.90
36444;DHT22;24692;45.642;13.806;2023-02-20T07:42:04;11.50;99.90
36444;DHT22;24692;45.642;13.806;2023-02-20T07:44:30;11.60;99.90
36444;DHT22;24692;45.642;13.806;2023-02-20T07:46:55;11.70;99.90
36444;DHT22;24692;45.642;13.806;2023-02-20T07:49:21;11.70;99.90
36444;DHT22;24692;45.642;13.806;2023-02-20T07:51:47;11.70;99.90
36444;DHT22;24692;45.642;13.806;2023-02-20T07:54:12;11.70;99.90
36444;DHT22;24692;45.642;13.806;2023-02-20T07:56:40;12.00;99.90
36444;DHT22;24692;45.642;13.806;2023-02-20T07:59:06;12.00;99.90
36444;DHT22;24692;45.642;13.806;2023-02-20T08:01:31;12.10;99.90
36444;DHT22;24692;45.642;13.806;2023-02-20T08:03:57;12.20;99.90
36444;DHT22;24692;45.642;13.806;2023-02-20T08:06:23;12.30;99.90
36444;DHT22;24692;45.642;13.806;2023-02-20T08:08:49;12.30;99.90
36444;DHT22;24692;45.642;13.806;2023-02-20T08:11:20;12.40;99.90
36444;DHT22;24692;45.642;13.806;2023-02-20T08:13:46;12.50;99.90
36444;DHT22;24692;45.642;13.806;2023-02-20T08:16:12;12.70;99.90
36444;DHT22;24692;45.642;13.806;2023-02-20T08:18:37;12.90;99.90
36444;DHT22;24692;45.642;13.806;2023-02-20T08:21:03;12.80;99.90
36444;DHT22;24692;45.642;13.806;2023-02-20T08:23:29;12.90;99.90
36444;DHT22;24692;45.642;13.806;2023-02-20T08:25:54;12.70;99.90
36444;DHT22;24692;45.642;13.806;2023-02-20T08:28:20;12.50;99.90
36444;DHT22;24692;45.642;13.806;2023-02-20T08:30:46;12.70;99.90
36444;DHT22;24692;45.642;13.806;2023-02-20T08:33:12;12.70;99.90
36444;DHT22;24692;45.642;13.806;2023-02-20T08:35:38;12.80;99.90
36444;DHT22;24692;45.642;13.806;2023-02-20T08:38:05;13.20;99.90
36444;DHT22;24692;45.642;13.806;2023-02-20T08:40:31;13.40;99.90
36444;DHT22;24692;45.642;13.806;2023-02-20T08:42:57;13.70;99.90
36444;DHT22;24692;45.642;13.806;2023-02-20T08:45:23;14.40;99.90
36444;DHT22;24692;45.642;13.806;2023-02-20T08:47:49;14.40;99.90
36444;DHT22;24692;45.642;13.806;2023-02-20T08:50:17;14.60;99.90
36444;DHT22;24692;45.642;13.806;2023-02-20T08:52:43;14.90;99.90
36444;DHT22;24692;45.642;13.806;2023-02-20T08:55:09;15.10;99.90
36444;DHT22;24692;45.642;13.806;2023-02-20T08:57:35;15.60;99.90
36444;DHT22;24692;45.642;13.806;2023-02-20T09:00:00;15.80;99.90
36444;DHT22;24692;45.642;13.806;2023-02-20T09:02:26;16.30;99.90
36444;DHT22;24692;45.642;13.806;2023-02-20T09:04:54;16.60;99.90
36444;DHT22;24692;45.642;13.806;2023-02-20T09:07:21;16.80;99.90
36444;DHT22;24692;45.642;13.806;2023-02-20T09:09:46;17.40;99.90
36444;DHT22;24692;45.642;13.806;2023-02-20T09:12:13;17.60;99.90
36444;DHT22;24692;45.642;13.806;2023-02-20T09:14:38;16.90;99.90
36444;DHT22;24692;45.642;13.806;2023-02-20T09:17:04;16.90;99.90
36444;DHT22;24692;45.642;13.806;2023-02-20T09:19:31;16.90;99.90
36444;DHT22;24692;45.642;13.806;2023-02-20T09:21:57;17.30;99.90
36444;DHT22;24692;45.642;13.806;2023-02-20T09:24:22;18.00;99.90
36444;DHT22;24692;45.642;13.806;2023-02-20T09:26:48;19.10;99.90
36444;DHT22;24692;45.642;13.806;2023-02-20T09:29:14;19.10;99.90
36444;DHT22;24692;45.642;13.806;2023-02-20T09:31:39;18.90;99.90
36444;DHT22;24692;45.642;13.806;2023-02-20T09:34:05;18.60;99.90
36444;DHT22;24692;45.642;13.806;2023-02-20T09:36:31;18.70;99.90
36444;DHT22;24692;45.642;13.806;2023-02-20T09:38:56;19.10;99.90
36444;DHT22;24692;45.642;13.806;2023-02-20T09:50:43;23.50;99.90
36444;DHT22;24692;45.642;13.806;2023-02-20T09:55:54;23.70;99.90
36444;DHT22;24692;45.642;13.806;2023-02-20T09:58:43;23.90;99.90
36444;DHT22;24692;45.642;13.806;2023-02-20T10:01:12;24.10;99.90
36444;DHT22;24692;45.642;13.806;2023-02-20T10:06:22;23.60;99.90
36444;DHT22;24692;45.642;13.806;2023-02-20T10:08:50;23.60;99.90
36444;DHT22;24692;45.642;13.806;2023-02-20T10:22:31;23.40;99.90
36444;DHT22;24692;45.642;13.806;2023-02-20T10:25:24;23.30;99.90
36444;DHT22;24692;45.642;13.806;2023-02-20T10:30:33;21.30;99.90
36444;DHT22;24692;45.642;13.806;2023-02-20T10:33:32;21.00;99.90
36444;DHT22;24692;45.642;13.806;2023-02-20T10:38:29;21.00;99.90
36444;DHT22;24692;45.642;13.806;2023-02-20T10:41:31;20.60;99.90
36444;DHT22;24692;45.642;13.806;2023-02-20T10:46:44;20.60;99.90
36444;DHT22;24692;45.642;13.806;2023-02-20T10:49:20;21.10;99.90
36444;DHT22;24692;45.642;13.806;2023-02-20T10:51:51;21.50;99.90
36444;DHT22;24692;45.642;13.806;2023-02-20T10:54:28;21.30;99.90
36444;DHT22;24692;45.642;13.806;2023-02-20T10:57:21;20.60;99.90
36444;DHT22;24692;45.642;13.806;2023-02-20T11:00:10;21.20;99.90
36444;DHT22;24692;45.642;13.806;2023-02-20T11:02:44;20.80;99.90
36444;DHT22;24692;45.642;13.806;2023-02-20T11:05:15;20.50;99.90
36444;DHT22;24692;45.642;13.806;2023-02-20T11:07:42;20.80;99.90
36444;DHT22;24692;45.642;13.806;2023-02-20T11:10:08;20.50;99.90
36444;DHT22;24692;45.642;13.806;2023-02-20T11:15:37;20.40;99.90
36444;DHT22;24692;45.642;13.806;2023-02-20T11:17:57;20.40;99.90
36444;DHT22;24692;45.642;13.806;2023-02-20T11:23:07;20.20;99.90
36444;DHT22;24692;45.642;13.806;2023-02-20T11:25:36;19.30;99.90
36444;DHT22;24692;45.642;13.806;2023-02-20T11:28:18;19.80;99.90
36444;DHT22;24692;45.642;13.806;2023-02-20T11:30:47;20.90;99.90
36444;DHT22;24692;45.642;13.806;2023-02-20T11:33:17;21.10;99.90
36444;DHT22;24692;45.642;13.806;2023-02-20T11:35:47;20.60;99.90
36444;DHT22;24692;45.642;13.806;2023-02-20T11:40:59;20.40;99.90
36444;DHT22;24692;45.642;13.806;2023-02-20T11:43:33;20.10;99.90
36444;DHT22;24692;45.642;13.806;2023-02-20T11:46:20;19.40;99.90
36444;DHT22;24692;45.642;13.806;2023-02-20T11:49:07;18.70;99.90
36444;DHT22;24692;45.642;13.806;2023-02-20T11:51:43;18.60;99.90
36444;DHT22;24692;45.642;13.806;2023-02-20T11:54:17;18.60;99.90
36444;DHT22;24692;45.642;13.806;2023-02-20T11:57:05;17.60;99.90
36444;DHT22;24692;45.642;13.806;2023-02-20T11:59:45;17.30;99.90
36444;DHT22;24692;45.642;13.806;2023-02-20T12:05:05;17.50;99.90
36444;DHT22;24692;45.642;13.806;2023-02-20T12:07:57;17.30;99.90
36444;DHT22;24692;45.642;13.806;2023-02-20T12:10:44;16.80;99.90
36444;DHT22;24692;45.642;13.806;2023-02-20T12:13:15;16.60;99.90
36444;DHT22;24692;45.642;13.806;2023-02-20T12:15:45;16.40;99.90
36444;DHT22;24692;45.642;13.806;2023-02-20T12:18:31;16.40;99.90
36444;DHT22;24692;45.642;13.806;2023-02-20T12:23:55;16.10;99.90
36444;DHT22;24692;45.642;13.806;2023-02-20T12:26:45;16.20;99.90
36444;DHT22;24692;45.642;13.806;2023-02-20T12:29:37;16.20;99.90
36444;DHT22;24692;45.642;13.806;2023-02-20T12:32:31;16.00;99.90
36444;DHT22;24692;45.642;13.806;2023-02-20T12:42:50;16.60;99.90
36444;DHT22;24692;45.642;13.806;2023-02-20T12:47:55;16.60;99.90
36444;DHT22;24692;45.642;13.806;2023-02-20T12:50:40;16.60;99.90
36444;DHT22;24692;45.642;13.806;2023-02-20T13:01:12;16.20;99.90
36444;DHT22;24692;45.642;13.806;2023-02-20T13:06:43;16.10;99.90
36444;DHT22;24692;45.642;13.806;2023-02-20T13:09:19;15.70;99.90
36444;DHT22;24692;45.642;13.806;2023-02-20T13:11:50;16.00;99.90
36444;DHT22;24692;45.642;13.806;2023-02-20T13:14:28;16.40;99.90
36444;DHT22;24692;45.642;13.806;2023-02-20T13:17:44;16.50;99.90
36444;DHT22;24692;45.642;13.806;2023-02-20T13:22:36;16.60;99.90
36444;DHT22;24692;45.642;13.806;2023-02-20T13:28:46;16.50;99.90
36444;DHT22;24692;45.642;13.806;2023-02-20T13:31:39;16.30;99.90
36444;DHT22;24692;45.642;13.806;2023-02-20T13:36:37;16.60;99.90
36444;DHT22;24692;45.642;13.806;2023-02-20T13:44:40;15.80;99.90
36444;DHT22;24692;45.642;13.806;2023-02-20T13:52:40;15.40;99.90
36444;DHT22;24692;45.642;13.806;2023-02-20T14:02:52;15.00;99.90
36444;DHT22;24692;45.642;13.806;2023-02-20T14:05:23;15.30;99.90
36444;DHT22;24692;45.642;13.806;2023-02-20T14:07:49;16.30;99.90
36444;DHT22;24692;45.642;13.806;2023-02-20T14:10:34;16.50;99.90
36444;DHT22;24692;45.642;13.806;2023-02-20T14:13:11;17.10;99.90
36444;DHT22;24692;45.642;13.806;2023-02-20T14:18:17;18.10;99.90
36444;DHT22;24692;45.642;13.806;2023-02-20T14:20:44;18.40;99.90
36444;DHT22;24692;45.642;13.806;2023-02-20T14:23:27;18.70;99.90
36444;DHT22;24692;45.642;13.806;2023-02-20T14:25:58;17.90;99.90
36444;DHT22;24692;45.642;13.806;2023-02-20T14:28:29;18.30;99.90
36444;DHT22;24692;45.642;13.806;2023-02-20T14:31:16;18.80;99.90
36444;DHT22;24692;45.642;13.806;2023-02-20T14:33:43;18.90;99.90
36444;DHT22;24692;45.642;13.806;2023-02-20T14:41:22;19.40;99.90
36444;DHT22;24692;45.642;13.806;2023-02-20T14:43:59;19.40;99.90
36444;DHT22;24692;45.642;13.806;2023-02-20T14:46:31;19.40;99.90
36444;DHT22;24692;45.642;13.806;2023-02-20T14:49:26;18.60;99.90
36444;DHT22;24692;45.642;13.806;2023-02-20T14:52:14;19.10;99.90
36444;DHT22;24692;45.642;13.806;2023-02-20T14:54:43;18.60;99.90
36444;DHT22;24692;45.642;13.806;2023-02-20T14:57:15;18.00;99.90
36444;DHT22;24692;45.642;13.806;2023-02-20T14:59:41;17.70;99.90
36444;DHT22;24692;45.642;13.806;2023-02-20T15:02:25;17.40;99.90
36444;DHT22;24692;45.642;13.806;2023-02-20T15:04:54;17.00;99.90
36444;DHT22;24692;45.642;13.806;2023-02-20T15:07:22;16.90;99.90
36444;DHT22;24692;45.642;13.806;2023-02-20T15:09:52;16.70;99.90
36444;DHT22;24692;45.642;13.806;2023-02-20T15:12:28;16.70;99.90
36444;DHT22;24692;45.642;13.806;2023-02-20T15:15:14;17.00;99.90
36444;DHT22;24692;45.642;13.806;2023-02-20T15:17:43;17.00;99.90
36444;DHT22;24692;45.642;13.806;2023-02-20T15:20:28;17.10;99.90
36444;DHT22;24692;45.642;13.806;2023-02-20T15:25:40;16.70;99.90
36444;DHT22;24692;45.642;13.806;2023-02-20T15:33:40;16.40;99.90
36444;DHT22;24692;45.642;13.806;2023-02-20T15:36:11;16.60;99.90
36444;DHT22;24692;45.642;13.806;2023-02-20T15:38:38;17.20;99.90
36444;DHT22;24692;45.642;13.806;2023-02-20T15:41:04;17.50;99.90
36444;DHT22;24692;45.642;13.806;2023-02-20T15:43:31;17.60;99.90
36444;DHT22;24692;45.642;13.806;2023-02-20T15:45:57;17.60;99.90
36444;DHT22;24692;45.642;13.806;2023-02-20T15:48:22;17.20;99.90
36444;DHT22;24692;45.642;13.806;2023-02-20T15:50:49;17.10;99.90
36444;DHT22;24692;45.642;13.806;2023-02-20T15:53:27;17.20;99.90
36444;DHT22;24692;45.642;13.806;2023-02-20T15:55:54;17.30;99.90
36444;DHT22;24692;45.642;13.806;2023-02-20T15:58:24;17.20;99.90
36444;DHT22;24692;45.642;13.806;2023-02-20T16:00:51;17.10;99.90
36444;DHT22;24692;45.642;13.806;2023-02-20T16:03:20;17.10;99.90
36444;DHT22;24692;45.642;13.806;2023-02-20T16:05:46;17.00;99.90
36444;DHT22;24692;45.642;13.806;2023-02-20T16:08:12;16.90;99.90
36444;DHT22;24692;45.642;13.806;2023-02-20T16:10:37;16.80;99.90
36444;DHT22;24692;45.642;13.806;2023-02-20T16:13:03;16.50;99.90
36444;DHT22;24692;45.642;13.806;2023-02-20T16:15:29;16.30;99.90
36444;DHT22;24692;45.642;13.806;2023-02-20T16:17:55;16.10;99.90
36444;DHT22;24692;45.642;13.806;2023-02-20T16:20:27;15.80;99.90
36444;DHT22;24692;45.642;13.806;2023-02-20T16:22:54;15.50;99.90
36444;DHT22;24692;45.642;13.806;2023-02-20T16:25:21;15.10;99.90
36444;DHT22;24692;45.642;13.806;2023-02-20T16:27:50;14.70;99.90
36444;DHT22;24692;45.642;13.806;2023-02-20T16:30:25;14.40;99.90
36444;DHT22;24692;45.642;13.806;2023-02-20T16:32:51;14.20;99.90
36444;DHT22;24692;45.642;13.806;2023-02-20T16:35:18;14.00;99.90
36444;DHT22;24692;45.642;13.806;2023-02-20T16:37:44;13.70;99.90
36444;DHT22;24692;45.642;13.806;2023-02-20T16:40:12;13.40;99.90
36444;DHT22;24692;45.642;13.806;2023-02-20T16:42:39;13.00;99.90
36444;DHT22;24692;45.642;13.806;2023-02-20T16:45:18;12.70;99.90
36444;DHT22;24692;45.642;13.806;2023-02-20T16:47:49;12.50;99.90
36444;DHT22;24692;45.642;13.806;2023-02-20T16:50:17;12.50;99.90
36444;DHT22;24692;45.642;13.806;2023-02-20T16:52:45;12.50;99.90
36444;DHT22;24692;45.642;13.806;2023-02-20T16:55:31;12.50;99.90
36444;DHT22;24692;45.642;13.806;2023-02-20T16:57:58;12.50;99.90
36444;DHT22;24692;45.642;13.806;2023-02-20T17:00:32;12.50;99.90
36444;DHT22;24692;45.642;13.806;2023-02-20T17:02:59;12.50;99.90
36444;DHT22;24692;45.642;13.806;2023-02-20T17:05:31;12.30;99.90
36444;DHT22;24692;45.642;13.806;2023-02-20T17:07:58;12.20;99.90
36444;DHT22;24692;45.642;13.806;2023-02-20T17:10:25;12.10;99.90
36444;DHT22;24692;45.642;13.806;2023-02-20T17:12:51;12.00;99.90
36444;DHT22;24692;45.642;13.806;2023-02-20T17:15:19;11.80;99.90
36444;DHT22;24692;45.642;13.806;2023-02-20T17:17:45;11.60;99.90
36444;DHT22;24692;45.642;13.806;2023-02-20T17:20:14;11.40;99.90
36444;DHT22;24692;45.642;13.806;2023-02-20T17:22:40;11.30;99.90
36444;DHT22;24692;45.642;13.806;2023-02-20T17:25:15;11.20;99.90
36444;DHT22;24692;45.642;13.806;2023-02-20T17:27:41;11.20;99.90
36444;DHT22;24692;45.642;13.806;2023-02-20T17:30:07;11.20;99.90
36444;DHT22;24692;45.642;13.806;2023-02-20T17:32:33;11.20;99.90
36444;DHT22;24692;45.642;13.806;2023-02-20T17:34:59;11.20;99.90
36444;DHT22;24692;45.642;13.806;2023-02-20T17:37:24;11.20;99.90
36444;DHT22;24692;45.642;13.806;2023-02-20T17:39:57;11.10;99.90
36444;DHT22;24692;45.642;13.806;2023-02-20T17:42:23;11.10;99.90
36444;DHT22;24692;45.642;13.806;2023-02-20T17:44:49;11.10;99.90
36444;DHT22;24692;45.642;13.806;2023-02-20T17:47:15;11.00;99.90
36444;DHT22;24692;45.642;13.806;2023-02-20T17:49:41;11.00;99.90
36444;DHT22;24692;45.642;13.806;2023-02-20T17:52:08;11.10;99.90
36444;DHT22;24692;45.642;13.806;2023-02-20T17:54:34;11.00;99.90
36444;DHT22;24692;45.642;13.806;2023-02-20T17:57:00;10.90;99.90
36444;DHT22;24692;45.642;13.806;2023-02-20T17:59:25;10.90;99.90
36444;DHT22;24692;45.642;13.806;2023-02-20T18:01:52;11.00;99.90